sensor_id;sensor_type;location;lat;lon;timestamp;P1;durP1;ratioP1;P2;durP2;ratioP2
11024;SDS011;22890;51.820;8.682;2022-08-25T00:02:10;4.37;;;2.43;;
11024;SDS011;22890;51.820;8.682;2022-08-25T00:04:38;3.67;;;2.30;;
11024;SDS011;22890;51.820;8.682;2022-08-25T00:07:06;5.47;;;2.57;;
11024;SDS011;22890;51.820;8.682;2022-08-25T00:09:33;4.77;;;1.90;;
11024;SDS011;22890;51.820;8.682;2022-08-25T00:12:01;8.67;;;2.77;;
11024;SDS011;22890;51.820;8.682;2022-08-25T00:14:30;3.23;;;2.00;;
11024;SDS011;22890;51.820;8.682;2022-08-25T00:16:59;3.63;;;2.33;;
11024;SDS011;22890;51.820;8.682;2022-08-25T00:19:28;2.53;;;2.33;;
11024;SDS011;22890;51.820;8.682;2022-08-25T00:21:57;3.57;;;2.20;;
11024;SDS011;22890;51.820;8.682;2022-08-25T00:24:26;2.20;;;2.00;;
11024;SDS011;22890;51.820;8.682;2022-08-25T00:26:54;2.90;;;2.60;;
11024;SDS011;22890;51.820;8.682;2022-08-25T00:29:23;3.50;;;2.63;;
11024;SDS011;22890;51.820;8.682;2022-08-25T00:31:51;6.77;;;2.50;;
11024;SDS011;22890;51.820;8.682;2022-08-25T00:34:22;4.67;;;2.43;;
11024;SDS011;22890;51.820;8.682;2022-08-25T00:36:51;3.43;;;2.33;;
11024;SDS011;22890;51.820;8.682;2022-08-25T00:39:18;4.27;;;2.90;;
11024;SDS011;22890;51.820;8.682;2022-08-25T00:41:46;4.00;;;2.40;;
11024;SDS011;22890;51.820;8.682;2022-08-25T00:44:15;3.73;;;2.60;;
11024;SDS011;22890;51.820;8.682;2022-08-25T00:46:45;5.53;;;2.80;;
11024;SDS011;22890;51.820;8.682;2022-08-25T00:49:17;3.80;;;2.23;;
11024;SDS011;22890;51.820;8.682;2022-08-25T00:54:41;2.73;;;2.53;;
11024;SDS011;22890;51.820;8.682;2022-08-25T00:57:14;8.13;;;2.60;;
11024;SDS011;22890;51.820;8.682;2022-08-25T00:59:47;4.23;;;2.60;;
11024;SDS011;22890;51.820;8.682;2022-08-25T01:02:15;3.43;;;2.70;;
11024;SDS011;22890;51.820;8.682;2022-08-25T01:04:43;2.37;;;2.17;;
11024;SDS011;22890;51.820;8.682;2022-08-25T01:07:14;3.47;;;2.80;;
11024;SDS011;22890;51.820;8.682;2022-08-25T01:09:43;3.90;;;2.80;;
11024;SDS011;22890;51.820;8.682;2022-08-25T01:12:12;3.60;;;2.63;;
11024;SDS011;22890;51.820;8.682;2022-08-25T01:14:41;7.83;;;2.97;;
11024;SDS011;22890;51.820;8.682;2022-08-25T01:17:11;3.77;;;2.97;;
11024;SDS011;22890;51.820;8.682;2022-08-25T01:19:39;3.27;;;2.97;;
11024;SDS011;22890;51.820;8.682;2022-08-25T01:22:05;3.70;;;3.03;;
11024;SDS011;22890;51.820;8.682;2022-08-25T01:24:37;3.30;;;2.90;;
11024;SDS011;22890;51.820;8.682;2022-08-25T01:27:10;3.47;;;2.40;;
11024;SDS011;22890;51.820;8.682;2022-08-25T01:29:37;4.80;;;2.70;;
11024;SDS011;22890;51.820;8.682;2022-08-25T01:32:06;4.40;;;3.17;;
11024;SDS011;22890;51.820;8.682;2022-08-25T01:34:36;4.97;;;2.83;;
11024;SDS011;22890;51.820;8.682;2022-08-25T01:37:05;3.37;;;2.80;;
11024;SDS011;22890;51.820;8.682;2022-08-25T01:39:37;3.40;;;2.70;;
11024;SDS011;22890;51.820;8.682;2022-08-25T01:44:37;3.33;;;2.87;;
11024;SDS011;22890;51.820;8.682;2022-08-25T01:47:07;4.57;;;2.80;;
11024;SDS011;22890;51.820;8.682;2022-08-25T01:49:34;4.40;;;3.23;;
11024;SDS011;22890;51.820;8.682;2022-08-25T01:54:27;3.40;;;3.10;;
11024;SDS011;22890;51.820;8.682;2022-08-25T01:56:54;3.57;;;2.80;;
11024;SDS011;22890;51.820;8.682;2022-08-25T01:59:20;5.80;;;3.33;;
11024;SDS011;22890;51.820;8.682;2022-08-25T02:01:49;7.57;;;2.90;;
11024;SDS011;22890;51.820;8.682;2022-08-25T02:04:24;4.27;;;3.17;;
11024;SDS011;22890;51.820;8.682;2022-08-25T02:06:51;5.13;;;3.33;;
11024;SDS011;22890;51.820;8.682;2022-08-25T02:09:18;4.33;;;3.43;;
11024;SDS011;22890;51.820;8.682;2022-08-25T02:11:45;5.17;;;3.60;;
11024;SDS011;22890;51.820;8.682;2022-08-25T02:14:13;5.47;;;3.30;;
11024;SDS011;22890;51.820;8.682;2022-08-25T02:16:41;3.50;;;3.20;;
11024;SDS011;22890;51.820;8.682;2022-08-25T02:19:11;6.57;;;3.60;;
11024;SDS011;22890;51.820;8.682;2022-08-25T02:21:38;5.57;;;2.97;;
11024;SDS011;22890;51.820;8.682;2022-08-25T02:24:05;3.50;;;3.20;;
11024;SDS011;22890;51.820;8.682;2022-08-25T02:26:32;4.77;;;3.27;;
11024;SDS011;22890;51.820;8.682;2022-08-25T02:28:59;5.13;;;3.43;;
11024;SDS011;22890;51.820;8.682;2022-08-25T02:31:26;5.90;;;3.30;;
11024;SDS011;22890;51.820;8.682;2022-08-25T02:33:54;6.13;;;2.80;;
11024;SDS011;22890;51.820;8.682;2022-08-25T02:36:22;6.00;;;3.73;;
11024;SDS011;22890;51.820;8.682;2022-08-25T02:38:49;3.90;;;3.50;;
11024;SDS011;22890;51.820;8.682;2022-08-25T02:41:17;5.20;;;3.23;;
11024;SDS011;22890;51.820;8.682;2022-08-25T02:43:46;4.07;;;3.23;;
11024;SDS011;22890;51.820;8.682;2022-08-25T02:46:14;3.30;;;3.00;;
11024;SDS011;22890;51.820;8.682;2022-08-25T02:48:42;4.50;;;3.50;;
11024;SDS011;22890;51.820;8.682;2022-08-25T02:51:09;3.70;;;3.40;;
11024;SDS011;22890;51.820;8.682;2022-08-25T02:53:37;5.70;;;3.77;;
11024;SDS011;22890;51.820;8.682;2022-08-25T02:56:07;6.03;;;4.03;;
11024;SDS011;22890;51.820;8.682;2022-08-25T02:58:36;5.27;;;4.07;;
11024;SDS011;22890;51.820;8.682;2022-08-25T03:01:05;3.87;;;3.50;;
11024;SDS011;22890;51.820;8.682;2022-08-25T03:03:32;4.60;;;4.20;;
11024;SDS011;22890;51.820;8.682;2022-08-25T03:06:06;8.27;;;4.00;;
11024;SDS011;22890;51.820;8.682;2022-08-25T03:08:34;6.07;;;3.77;;
11024;SDS011;22890;51.820;8.682;2022-08-25T03:11:01;3.93;;;3.60;;
11024;SDS011;22890;51.820;8.682;2022-08-25T03:13:29;4.27;;;3.87;;
11024;SDS011;22890;51.820;8.682;2022-08-25T03:15:57;4.17;;;3.87;;
11024;SDS011;22890;51.820;8.682;2022-08-25T03:18:25;5.43;;;3.50;;
11024;SDS011;22890;51.820;8.682;2022-08-25T03:20:53;7.20;;;4.27;;
11024;SDS011;22890;51.820;8.682;2022-08-25T03:23:20;7.50;;;3.90;;
11024;SDS011;22890;51.820;8.682;2022-08-25T03:25:46;3.60;;;3.30;;
11024;SDS011;22890;51.820;8.682;2022-08-25T03:28:31;3.83;;;3.53;;
11024;SDS011;22890;51.820;8.682;2022-08-25T03:30:59;5.70;;;3.97;;
11024;SDS011;22890;51.820;8.682;2022-08-25T03:33:27;7.13;;;3.63;;
11024;SDS011;22890;51.820;8.682;2022-08-25T03:35:54;4.90;;;4.37;;
11024;SDS011;22890;51.820;8.682;2022-08-25T03:38:22;3.80;;;3.50;;
11024;SDS011;22890;51.820;8.682;2022-08-25T03:40:50;5.57;;;4.00;;
11024;SDS011;22890;51.820;8.682;2022-08-25T03:43:17;7.93;;;4.33;;
11024;SDS011;22890;51.820;8.682;2022-08-25T03:45:45;3.83;;;3.53;;
11024;SDS011;22890;51.820;8.682;2022-08-25T03:48:13;4.27;;;3.70;;
11024;SDS011;22890;51.820;8.682;2022-08-25T03:50:44;6.93;;;4.27;;
11024;SDS011;22890;51.820;8.682;2022-08-25T03:53:17;4.77;;;4.27;;
11024;SDS011;22890;51.820;8.682;2022-08-25T03:55:44;5.33;;;4.03;;
11024;SDS011;22890;51.820;8.682;2022-08-25T03:58:11;6.03;;;3.73;;
11024;SDS011;22890;51.820;8.682;2022-08-25T04:00:38;4.90;;;3.80;;
11024;SDS011;22890;51.820;8.682;2022-08-25T04:03:05;8.03;;;4.00;;
11024;SDS011;22890;51.820;8.682;2022-08-25T04:05:32;6.03;;;4.10;;
11024;SDS011;22890;51.820;8.682;2022-08-25T04:08:00;4.47;;;4.07;;
11024;SDS011;22890;51.820;8.682;2022-08-25T04:10:27;3.80;;;3.50;;
11024;SDS011;22890;51.820;8.682;2022-08-25T04:12:54;7.20;;;4.33;;
11024;SDS011;22890;51.820;8.682;2022-08-25T04:15:21;5.87;;;4.50;;
11024;SDS011;22890;51.820;8.682;2022-08-25T04:17:53;4.80;;;4.37;;
11024;SDS011;22890;51.820;8.682;2022-08-25T04:20:20;4.23;;;3.80;;
11024;SDS011;22890;51.820;8.682;2022-08-25T04:22:47;4.80;;;4.40;;
11024;SDS011;22890;51.820;8.682;2022-08-25T04:25:13;4.97;;;4.10;;
11024;SDS011;22890;51.820;8.682;2022-08-25T04:27:40;4.47;;;4.07;;
11024;SDS011;22890;51.820;8.682;2022-08-25T04:30:07;6.33;;;4.50;;
11024;SDS011;22890;51.820;8.682;2022-08-25T04:32:35;5.83;;;4.93;;
11024;SDS011;22890;51.820;8.682;2022-08-25T04:35:03;6.23;;;4.30;;
11024;SDS011;22890;51.820;8.682;2022-08-25T04:37:30;5.13;;;4.43;;
11024;SDS011;22890;51.820;8.682;2022-08-25T04:39:58;7.90;;;4.83;;
11024;SDS011;22890;51.820;8.682;2022-08-25T04:42:25;4.97;;;4.33;;
11024;SDS011;22890;51.820;8.682;2022-08-25T04:44:52;8.50;;;4.77;;
11024;SDS011;22890;51.820;8.682;2022-08-25T04:47:19;5.37;;;4.90;;
11024;SDS011;22890;51.820;8.682;2022-08-25T04:49:46;5.13;;;4.60;;
11024;SDS011;22890;51.820;8.682;2022-08-25T04:52:13;5.43;;;4.60;;
11024;SDS011;22890;51.820;8.682;2022-08-25T04:54:40;10.13;;;5.20;;
11024;SDS011;22890;51.820;8.682;2022-08-25T04:57:07;5.30;;;4.80;;
11024;SDS011;22890;51.820;8.682;2022-08-25T04:59:34;6.17;;;5.40;;
11024;SDS011;22890;51.820;8.682;2022-08-25T05:02:01;6.77;;;5.00;;
11024;SDS011;22890;51.820;8.682;2022-08-25T05:04:30;8.00;;;5.23;;
11024;SDS011;22890;51.820;8.682;2022-08-25T05:06:58;7.10;;;4.80;;
11024;SDS011;22890;51.820;8.682;2022-08-25T05:09:26;5.60;;;5.10;;
11024;SDS011;22890;51.820;8.682;2022-08-25T05:11:53;6.30;;;4.57;;
11024;SDS011;22890;51.820;8.682;2022-08-25T05:14:20;5.00;;;4.50;;
11024;SDS011;22890;51.820;8.682;2022-08-25T05:16:51;5.17;;;4.53;;
11024;SDS011;22890;51.820;8.682;2022-08-25T05:19:21;6.80;;;4.93;;
11024;SDS011;22890;51.820;8.682;2022-08-25T05:21:49;5.63;;;4.00;;
11024;SDS011;22890;51.820;8.682;2022-08-25T05:24:16;4.83;;;4.30;;
11024;SDS011;22890;51.820;8.682;2022-08-25T05:26:43;4.50;;;4.13;;
11024;SDS011;22890;51.820;8.682;2022-08-25T05:29:10;4.83;;;4.43;;
11024;SDS011;22890;51.820;8.682;2022-08-25T05:31:37;4.80;;;4.30;;
11024;SDS011;22890;51.820;8.682;2022-08-25T05:34:10;7.43;;;4.17;;
11024;SDS011;22890;51.820;8.682;2022-08-25T05:36:37;12.50;;;4.47;;
11024;SDS011;22890;51.820;8.682;2022-08-25T05:39:08;22.47;;;6.03;;
11024;SDS011;22890;51.820;8.682;2022-08-25T05:41:35;8.03;;;4.30;;
11024;SDS011;22890;51.820;8.682;2022-08-25T05:44:02;9.23;;;5.03;;
11024;SDS011;22890;51.820;8.682;2022-08-25T05:46:29;5.63;;;4.87;;
11024;SDS011;22890;51.820;8.682;2022-08-25T05:48:57;8.50;;;4.97;;
11024;SDS011;22890;51.820;8.682;2022-08-25T05:51:23;5.33;;;4.83;;
11024;SDS011;22890;51.820;8.682;2022-08-25T05:53:51;6.57;;;4.47;;
11024;SDS011;22890;51.820;8.682;2022-08-25T05:56:18;6.87;;;4.67;;
11024;SDS011;22890;51.820;8.682;2022-08-25T05:58:45;6.20;;;3.57;;
11024;SDS011;22890;51.820;8.682;2022-08-25T06:01:23;5.00;;;4.50;;
11024;SDS011;22890;51.820;8.682;2022-08-25T06:04:10;5.20;;;4.23;;
11024;SDS011;22890;51.820;8.682;2022-08-25T06:06:38;4.90;;;4.47;;
11024;SDS011;22890;51.820;8.682;2022-08-25T06:09:05;6.17;;;4.93;;
11024;SDS011;22890;51.820;8.682;2022-08-25T06:11:35;6.87;;;4.20;;
11024;SDS011;22890;51.820;8.682;2022-08-25T06:14:04;8.43;;;5.00;;
11024;SDS011;22890;51.820;8.682;2022-08-25T06:16:32;6.90;;;4.20;;
11024;SDS011;22890;51.820;8.682;2022-08-25T06:18:59;9.07;;;4.23;;
11024;SDS011;22890;51.820;8.682;2022-08-25T06:21:26;8.90;;;4.30;;
11024;SDS011;22890;51.820;8.682;2022-08-25T06:23:53;9.20;;;4.43;;
11024;SDS011;22890;51.820;8.682;2022-08-25T06:26:19;15.50;;;4.97;;
11024;SDS011;22890;51.820;8.682;2022-08-25T06:28:49;9.80;;;5.13;;
11024;SDS011;22890;51.820;8.682;2022-08-25T06:31:17;5.47;;;3.93;;
11024;SDS011;22890;51.820;8.682;2022-08-25T06:33:44;4.73;;;3.80;;
11024;SDS011;22890;51.820;8.682;2022-08-25T06:36:11;6.53;;;4.10;;
11024;SDS011;22890;51.820;8.682;2022-08-25T06:38:38;5.37;;;3.67;;
11024;SDS011;22890;51.820;8.682;2022-08-25T06:41:05;6.20;;;4.13;;
11024;SDS011;22890;51.820;8.682;2022-08-25T06:43:33;9.87;;;3.80;;
11024;SDS011;22890;51.820;8.682;2022-08-25T06:46:13;5.77;;;3.60;;
11024;SDS011;22890;51.820;8.682;2022-08-25T06:48:42;3.70;;;3.40;;
11024;SDS011;22890;51.820;8.682;2022-08-25T06:51:11;8.50;;;4.27;;
11024;SDS011;22890;51.820;8.682;2022-08-25T06:53:39;5.87;;;3.60;;
11024;SDS011;22890;51.820;8.682;2022-08-25T06:56:08;5.00;;;3.70;;
11024;SDS011;22890;51.820;8.682;2022-08-25T06:58:36;6.80;;;4.10;;
11024;SDS011;22890;51.820;8.682;2022-08-25T07:01:09;6.00;;;4.20;;
11024;SDS011;22890;51.820;8.682;2022-08-25T07:03:46;4.97;;;4.13;;
11024;SDS011;22890;51.820;8.682;2022-08-25T07:06:13;8.83;;;4.50;;
11024;SDS011;22890;51.820;8.682;2022-08-25T07:08:44;10.43;;;4.70;;
11024;SDS011;22890;51.820;8.682;2022-08-25T07:11:11;6.70;;;5.07;;
11024;SDS011;22890;51.820;8.682;2022-08-25T07:13:42;7.27;;;5.17;;
11024;SDS011;22890;51.820;8.682;2022-08-25T07:16:09;7.77;;;5.07;;
11024;SDS011;22890;51.820;8.682;2022-08-25T07:18:36;6.57;;;5.17;;
11024;SDS011;22890;51.820;8.682;2022-08-25T07:21:03;8.63;;;5.10;;
11024;SDS011;22890;51.820;8.682;2022-08-25T07:23:34;9.47;;;4.80;;
11024;SDS011;22890;51.820;8.682;2022-08-25T07:26:08;7.90;;;5.60;;
11024;SDS011;22890;51.820;8.682;2022-08-25T07:28:57;8.90;;;5.27;;
11024;SDS011;22890;51.820;8.682;2022-08-25T07:31:25;4.63;;;4.10;;
11024;SDS011;22890;51.820;8.682;2022-08-25T07:33:55;5.40;;;4.90;;
11024;SDS011;22890;51.820;8.682;2022-08-25T07:36:41;8.37;;;5.17;;
11024;SDS011;22890;51.820;8.682;2022-08-25T07:39:08;11.90;;;5.17;;
11024;SDS011;22890;51.820;8.682;2022-08-25T07:41:36;7.20;;;5.10;;
11024;SDS011;22890;51.820;8.682;2022-08-25T07:44:07;8.60;;;5.40;;
11024;SDS011;22890;51.820;8.682;2022-08-25T07:46:35;6.57;;;5.90;;
11024;SDS011;22890;51.820;8.682;2022-08-25T07:49:02;7.27;;;5.67;;
11024;SDS011;22890;51.820;8.682;2022-08-25T07:51:41;12.80;;;6.37;;
11024;SDS011;22890;51.820;8.682;2022-08-25T07:54:28;8.67;;;6.10;;
11024;SDS011;22890;51.820;8.682;2022-08-25T07:56:59;10.50;;;6.20;;
11024;SDS011;22890;51.820;8.682;2022-08-25T07:59:27;11.13;;;6.40;;
11024;SDS011;22890;51.820;8.682;2022-08-25T08:01:53;10.30;;;6.23;;
11024;SDS011;22890;51.820;8.682;2022-08-25T08:04:20;8.17;;;6.70;;
11024;SDS011;22890;51.820;8.682;2022-08-25T08:06:47;10.83;;;6.73;;
11024;SDS011;22890;51.820;8.682;2022-08-25T08:09:13;6.53;;;5.93;;
11024;SDS011;22890;51.820;8.682;2022-08-25T08:11:41;13.93;;;6.50;;
11024;SDS011;22890;51.820;8.682;2022-08-25T08:14:19;11.17;;;6.03;;
11024;SDS011;22890;51.820;8.682;2022-08-25T08:16:45;8.93;;;6.50;;
11024;SDS011;22890;51.820;8.682;2022-08-25T08:19:12;6.67;;;6.07;;
11024;SDS011;22890;51.820;8.682;2022-08-25T08:21:39;9.83;;;6.20;;
11024;SDS011;22890;51.820;8.682;2022-08-25T08:24:06;10.27;;;6.50;;
11024;SDS011;22890;51.820;8.682;2022-08-25T08:26:53;8.07;;;5.80;;
11024;SDS011;22890;51.820;8.682;2022-08-25T08:29:24;9.20;;;7.07;;
11024;SDS011;22890;51.820;8.682;2022-08-25T08:31:51;11.57;;;6.13;;
11024;SDS011;22890;51.820;8.682;2022-08-25T08:34:18;9.60;;;6.70;;
11024;SDS011;22890;51.820;8.682;2022-08-25T08:36:50;9.33;;;6.73;;
11024;SDS011;22890;51.820;8.682;2022-08-25T08:39:17;8.27;;;6.50;;
11024;SDS011;22890;51.820;8.682;2022-08-25T08:42:05;7.37;;;6.50;;
11024;SDS011;22890;51.820;8.682;2022-08-25T08:47:31;9.97;;;6.33;;
11024;SDS011;22890;51.820;8.682;2022-08-25T08:50:21;11.07;;;6.80;;
11024;SDS011;22890;51.820;8.682;2022-08-25T08:53:01;6.97;;;6.27;;
11024;SDS011;22890;51.820;8.682;2022-08-25T08:58:17;6.70;;;5.90;;
11024;SDS011;22890;51.820;8.682;2022-08-25T09:00:52;10.67;;;6.40;;
11024;SDS011;22890;51.820;8.682;2022-08-25T09:06:10;8.73;;;6.30;;
11024;SDS011;22890;51.820;8.682;2022-08-25T09:08:39;7.10;;;6.37;;
11024;SDS011;22890;51.820;8.682;2022-08-25T09:11:20;13.10;;;6.50;;
11024;SDS011;22890;51.820;8.682;2022-08-25T09:19:24;7.50;;;6.73;;
11024;SDS011;22890;51.820;8.682;2022-08-25T09:25:10;10.80;;;7.17;;
11024;SDS011;22890;51.820;8.682;2022-08-25T09:28:20;9.53;;;7.50;;
11024;SDS011;22890;51.820;8.682;2022-08-25T09:30:56;8.97;;;6.70;;
11024;SDS011;22890;51.820;8.682;2022-08-25T09:33:30;8.20;;;6.80;;
11024;SDS011;22890;51.820;8.682;2022-08-25T09:36:01;12.47;;;7.07;;
11024;SDS011;22890;51.820;8.682;2022-08-25T09:38:31;11.27;;;7.13;;
11024;SDS011;22890;51.820;8.682;2022-08-25T09:40:59;8.07;;;6.57;;
11024;SDS011;22890;51.820;8.682;2022-08-25T09:43:37;10.30;;;6.27;;
11024;SDS011;22890;51.820;8.682;2022-08-25T09:48:41;9.37;;;6.93;;
11024;SDS011;22890;51.820;8.682;2022-08-25T09:54:05;9.73;;;7.23;;
11024;SDS011;22890;51.820;8.682;2022-08-25T09:56:51;9.77;;;6.90;;
11024;SDS011;22890;51.820;8.682;2022-08-25T09:59:24;8.20;;;7.37;;
11024;SDS011;22890;51.820;8.682;2022-08-25T10:02:43;8.43;;;6.73;;
11024;SDS011;22890;51.820;8.682;2022-08-25T10:04:54;10.30;;;6.70;;
11024;SDS011;22890;51.820;8.682;2022-08-25T10:09:54;9.60;;;6.63;;
11024;SDS011;22890;51.820;8.682;2022-08-25T10:12:40;9.50;;;6.00;;
11024;SDS011;22890;51.820;8.682;2022-08-25T10:15:42;8.23;;;6.00;;
11024;SDS011;22890;51.820;8.682;2022-08-25T10:18:19;10.70;;;6.13;;
11024;SDS011;22890;51.820;8.682;2022-08-25T10:21:05;8.27;;;6.20;;
11024;SDS011;22890;51.820;8.682;2022-08-25T10:23:37;8.00;;;5.73;;
11024;SDS011;22890;51.820;8.682;2022-08-25T10:26:15;7.33;;;6.30;;
11024;SDS011;22890;51.820;8.682;2022-08-25T10:28:54;8.90;;;6.67;;
11024;SDS011;22890;51.820;8.682;2022-08-25T10:31:37;7.60;;;6.17;;
11024;SDS011;22890;51.820;8.682;2022-08-25T10:43:04;5.87;;;5.27;;
11024;SDS011;22890;51.820;8.682;2022-08-25T10:45:46;5.97;;;5.37;;
11024;SDS011;22890;51.820;8.682;2022-08-25T10:59:48;9.27;;;5.63;;
11024;SDS011;22890;51.820;8.682;2022-08-25T11:07:33;10.90;;;5.50;;
11024;SDS011;22890;51.820;8.682;2022-08-25T11:10:47;7.60;;;5.70;;
11024;SDS011;22890;51.820;8.682;2022-08-25T11:13:03;9.83;;;5.07;;
11024;SDS011;22890;51.820;8.682;2022-08-25T11:15:39;7.43;;;5.70;;
11024;SDS011;22890;51.820;8.682;2022-08-25T11:18:43;8.67;;;5.90;;
11024;SDS011;22890;51.820;8.682;2022-08-25T11:21:59;8.93;;;5.40;;
11024;SDS011;22890;51.820;8.682;2022-08-25T11:24:34;7.13;;;5.10;;
11024;SDS011;22890;51.820;8.682;2022-08-25T11:30:38;12.63;;;5.13;;
11024;SDS011;22890;51.820;8.682;2022-08-25T11:33:06;5.40;;;4.90;;
11024;SDS011;22890;51.820;8.682;2022-08-25T11:35:41;9.53;;;5.40;;
11024;SDS011;22890;51.820;8.682;2022-08-25T11:40:57;9.57;;;5.53;;
11024;SDS011;22890;51.820;8.682;2022-08-25T11:51:57;10.70;;;5.83;;
11024;SDS011;22890;51.820;8.682;2022-08-25T11:57:09;7.57;;;6.20;;
11024;SDS011;22890;51.820;8.682;2022-08-25T12:07:56;6.93;;;5.60;;
11024;SDS011;22890;51.820;8.682;2022-08-25T12:11:05;10.63;;;5.80;;
11024;SDS011;22890;51.820;8.682;2022-08-25T12:13:44;8.80;;;5.50;;
11024;SDS011;22890;51.820;8.682;2022-08-25T12:37:53;7.00;;;5.93;;
11024;SDS011;22890;51.820;8.682;2022-08-25T12:43:27;8.90;;;6.17;;
11024;SDS011;22890;51.820;8.682;2022-08-25T12:51:49;8.00;;;6.80;;
11024;SDS011;22890;51.820;8.682;2022-08-25T12:54:38;7.37;;;6.00;;
11024;SDS011;22890;51.820;8.682;2022-08-25T12:57:22;7.17;;;6.47;;
11024;SDS011;22890;51.820;8.682;2022-08-25T13:00:15;13.40;;;6.10;;
11024;SDS011;22890;51.820;8.682;2022-08-25T13:02:50;7.03;;;5.80;;
11024;SDS011;22890;51.820;8.682;2022-08-25T13:11:04;8.77;;;6.03;;
11024;SDS011;22890;51.820;8.682;2022-08-25T13:16:19;10.40;;;6.30;;
11024;SDS011;22890;51.820;8.682;2022-08-25T13:18:54;8.53;;;6.10;;
11024;SDS011;22890;51.820;8.682;2022-08-25T13:21:28;10.10;;;6.23;;
11024;SDS011;22890;51.820;8.682;2022-08-25T13:24:00;8.63;;;5.80;;
11024;SDS011;22890;51.820;8.682;2022-08-25T13:26:32;8.70;;;6.00;;
11024;SDS011;22890;51.820;8.682;2022-08-25T13:34:24;9.23;;;5.50;;
11024;SDS011;22890;51.820;8.682;2022-08-25T13:37:07;5.77;;;4.90;;
11024;SDS011;22890;51.820;8.682;2022-08-25T13:40:15;10.03;;;5.47;;
11024;SDS011;22890;51.820;8.682;2022-08-25T13:42:52;7.37;;;5.53;;
11024;SDS011;22890;51.820;8.682;2022-08-25T13:45:27;7.03;;;4.77;;
11024;SDS011;22890;51.820;8.682;2022-08-25T13:47:57;7.87;;;5.00;;
11024;SDS011;22890;51.820;8.682;2022-08-25T13:52:53;7.87;;;5.80;;
11024;SDS011;22890;51.820;8.682;2022-08-25T13:55:23;7.33;;;6.03;;
11024;SDS011;22890;51.820;8.682;2022-08-25T13:57:54;8.73;;;5.53;;
11024;SDS011;22890;51.820;8.682;2022-08-25T14:00:31;6.23;;;5.27;;
11024;SDS011;22890;51.820;8.682;2022-08-25T14:03:04;8.87;;;5.23;;
11024;SDS011;22890;51.820;8.682;2022-08-25T14:05:39;8.53;;;5.27;;
11024;SDS011;22890;51.820;8.682;2022-08-25T14:08:25;7.83;;;5.33;;
11024;SDS011;22890;51.820;8.682;2022-08-25T14:11:05;15.00;;;5.53;;
11024;SDS011;22890;51.820;8.682;2022-08-25T14:13:41;5.47;;;4.97;;
11024;SDS011;22890;51.820;8.682;2022-08-25T14:18:51;6.67;;;5.47;;
11024;SDS011;22890;51.820;8.682;2022-08-25T14:21:24;6.93;;;5.23;;
11024;SDS011;22890;51.820;8.682;2022-08-25T14:23:54;10.93;;;5.63;;
11024;SDS011;22890;51.820;8.682;2022-08-25T14:26:22;10.80;;;5.60;;
11024;SDS011;22890;51.820;8.682;2022-08-25T14:28:51;5.50;;;5.00;;
11024;SDS011;22890;51.820;8.682;2022-08-25T14:31:26;9.87;;;5.30;;
11024;SDS011;22890;51.820;8.682;2022-08-25T14:34:01;5.30;;;4.60;;
11024;SDS011;22890;51.820;8.682;2022-08-25T14:36:30;9.30;;;5.37;;
11024;SDS011;22890;51.820;8.682;2022-08-25T14:38:59;5.63;;;5.13;;
11024;SDS011;22890;51.820;8.682;2022-08-25T14:41:34;6.87;;;5.10;;
11024;SDS011;22890;51.820;8.682;2022-08-25T14:44:04;7.33;;;6.10;;
11024;SDS011;22890;51.820;8.682;2022-08-25T14:46:31;9.10;;;5.37;;
11024;SDS011;22890;51.820;8.682;2022-08-25T14:49:03;6.97;;;5.67;;
11024;SDS011;22890;51.820;8.682;2022-08-25T14:51:32;6.60;;;5.33;;
11024;SDS011;22890;51.820;8.682;2022-08-25T14:54:02;8.17;;;5.80;;
11024;SDS011;22890;51.820;8.682;2022-08-25T14:56:31;9.30;;;5.60;;
11024;SDS011;22890;51.820;8.682;2022-08-25T14:58:59;8.43;;;5.70;;
11024;SDS011;22890;51.820;8.682;2022-08-25T15:01:26;6.70;;;5.27;;
11024;SDS011;22890;51.820;8.682;2022-08-25T15:04:02;10.03;;;5.23;;
11024;SDS011;22890;51.820;8.682;2022-08-25T15:06:41;7.37;;;4.83;;
11024;SDS011;22890;51.820;8.682;2022-08-25T15:09:10;7.50;;;5.57;;
11024;SDS011;22890;51.820;8.682;2022-08-25T15:11:42;6.10;;;5.50;;
11024;SDS011;22890;51.820;8.682;2022-08-25T15:14:11;5.77;;;5.17;;
11024;SDS011;22890;51.820;8.682;2022-08-25T15:16:43;6.87;;;5.37;;
11024;SDS011;22890;51.820;8.682;2022-08-25T15:19:14;7.57;;;5.23;;
11024;SDS011;22890;51.820;8.682;2022-08-25T15:21:43;9.07;;;4.63;;
11024;SDS011;22890;51.820;8.682;2022-08-25T15:24:12;5.57;;;4.37;;
11024;SDS011;22890;51.820;8.682;2022-08-25T15:26:49;6.47;;;4.60;;
11024;SDS011;22890;51.820;8.682;2022-08-25T15:29:22;6.60;;;4.83;;
11024;SDS011;22890;51.820;8.682;2022-08-25T15:31:51;8.77;;;5.03;;
11024;SDS011;22890;51.820;8.682;2022-08-25T15:34:18;5.20;;;4.67;;
11024;SDS011;22890;51.820;8.682;2022-08-25T15:36:44;5.40;;;4.80;;
11024;SDS011;22890;51.820;8.682;2022-08-25T15:39:12;7.50;;;5.03;;
11024;SDS011;22890;51.820;8.682;2022-08-25T15:41:39;7.60;;;5.73;;
11024;SDS011;22890;51.820;8.682;2022-08-25T15:44:08;7.57;;;4.90;;
11024;SDS011;22890;51.820;8.682;2022-08-25T15:46:37;5.03;;;4.63;;
11024;SDS011;22890;51.820;8.682;2022-08-25T15:49:12;9.43;;;5.03;;
11024;SDS011;22890;51.820;8.682;2022-08-25T15:51:46;5.67;;;4.67;;
11024;SDS011;22890;51.820;8.682;2022-08-25T15:54:13;6.53;;;5.20;;
11024;SDS011;22890;51.820;8.682;2022-08-25T15:56:40;6.90;;;5.20;;
11024;SDS011;22890;51.820;8.682;2022-08-25T15:59:08;7.50;;;4.87;;
11024;SDS011;22890;51.820;8.682;2022-08-25T16:01:35;6.23;;;5.53;;
11024;SDS011;22890;51.820;8.682;2022-08-25T16:04:02;8.27;;;6.27;;
11024;SDS011;22890;51.820;8.682;2022-08-25T16:06:30;7.77;;;5.33;;
11024;SDS011;22890;51.820;8.682;2022-08-25T16:08:56;7.40;;;5.40;;
11024;SDS011;22890;51.820;8.682;2022-08-25T16:11:25;7.23;;;4.93;;
11024;SDS011;22890;51.820;8.682;2022-08-25T16:13:55;8.50;;;5.47;;
11024;SDS011;22890;51.820;8.682;2022-08-25T16:16:23;5.67;;;4.93;;
11024;SDS011;22890;51.820;8.682;2022-08-25T16:18:52;6.53;;;4.90;;
11024;SDS011;22890;51.820;8.682;2022-08-25T16:21:20;6.20;;;5.60;;
11024;SDS011;22890;51.820;8.682;2022-08-25T16:23:56;7.87;;;5.50;;
11024;SDS011;22890;51.820;8.682;2022-08-25T16:26:27;6.17;;;5.10;;
11024;SDS011;22890;51.820;8.682;2022-08-25T16:28:54;6.93;;;5.30;;
11024;SDS011;22890;51.820;8.682;2022-08-25T16:31:21;10.17;;;5.50;;
11024;SDS011;22890;51.820;8.682;2022-08-25T16:33:49;6.37;;;5.13;;
11024;SDS011;22890;51.820;8.682;2022-08-25T16:36:22;6.60;;;5.80;;
11024;SDS011;22890;51.820;8.682;2022-08-25T16:38:53;8.63;;;5.60;;
11024;SDS011;22890;51.820;8.682;2022-08-25T16:41:23;7.33;;;4.97;;
11024;SDS011;22890;51.820;8.682;2022-08-25T16:43:52;5.83;;;5.27;;
11024;SDS011;22890;51.820;8.682;2022-08-25T16:46:19;6.93;;;5.53;;
11024;SDS011;22890;51.820;8.682;2022-08-25T16:48:49;5.77;;;4.97;;
11024;SDS011;22890;51.820;8.682;2022-08-25T16:51:16;7.10;;;5.23;;
11024;SDS011;22890;51.820;8.682;2022-08-25T16:53:47;8.40;;;5.20;;
11024;SDS011;22890;51.820;8.682;2022-08-25T16:56:34;7.93;;;5.63;;
11024;SDS011;22890;51.820;8.682;2022-08-25T16:59:03;10.27;;;5.60;;
11024;SDS011;22890;51.820;8.682;2022-08-25T17:01:31;7.13;;;5.60;;
11024;SDS011;22890;51.820;8.682;2022-08-25T17:04:01;5.87;;;5.30;;
11024;SDS011;22890;51.820;8.682;2022-08-25T17:06:31;6.13;;;4.93;;
11024;SDS011;22890;51.820;8.682;2022-08-25T17:09:00;7.43;;;5.13;;
11024;SDS011;22890;51.820;8.682;2022-08-25T17:11:29;8.43;;;5.30;;
11024;SDS011;22890;51.820;8.682;2022-08-25T17:14:00;10.20;;;5.70;;
11024;SDS011;22890;51.820;8.682;2022-08-25T17:16:36;8.43;;;5.00;;
11024;SDS011;22890;51.820;8.682;2022-08-25T17:19:05;6.60;;;4.80;;
11024;SDS011;22890;51.820;8.682;2022-08-25T17:21:37;6.07;;;4.73;;
11024;SDS011;22890;51.820;8.682;2022-08-25T17:24:10;7.07;;;5.33;;